Time;durP1;ratioP1;P1;durP2;ratioP2;P2;SDS_P1;SDS_P2;PMS_P1;PMS_P2;Temp;Humidity;BMP_temperature;BMP_pressure;BME280_temperature;BME280_humidity;BME280_pressure;Samples;Min_cycle;Max_cycle;Signal;HPM_P1;HPM_P2
2024/03/29 01:44:33;;;;;;;;;;;;;;;;;;4996733;28;20298;-83
2024/03/29 01:47:00;;;;;;;;;;;;;;;;;;4998130;28;19928;-84
2024/03/29 01:49:27;;;;;;;;;;;;;;;;;;4998246;28;19922;-84
2024/03/29 01:51:54;;;;;;;;;;;;;;;;;;4998801;28;19928;-85
2024/03/29 01:54:30;;;;;;;;;;;;;;;;;;4996584;28;19922;-83
2024/03/29 01:56:57;;;;;;;;;;;;;;;;;;4998298;28;20353;-84
2024/03/29 01:59:24;;;;;;;;;;;;;;;;;;4997644;28;19928;-83
2024/03/29 02:01:51;;;;;;;;;;;;;;;;;;4997324;28;19921;-84
2024/03/29 02:04:18;;;;;;;;;;;;;;;;;;4997931;28;19921;-84
2024/03/29 02:06:44;;;;;;;;;;;;;;;;;;4989782;28;20323;-83
2024/03/29 02:09:11;;;;;;;;;;;;;;;;;;4996934;28;19921;-84
2024/03/29 02:11:37;;;;;;;;;;;;;;;;;;4995636;28;19921;-84
2024/03/29 02:14:05;;;;;;;;;;;;;;;;;;4996755;28;20045;-85
2024/03/29 02:16:32;;;;;;;;;;;;;;;;;;4997277;28;19926;-85
2024/03/29 02:18:59;;;;;;;;;;;;;;;;;;4996900;28;19928;-85
2024/03/29 02:21:26;;;;;;;;;;;;;;;;;;4997317;28;20534;-84
2024/03/29 02:23:53;;;;;;;;;;;;;;;;;;4997447;28;19921;-83
2024/03/29 02:26:20;;;;;;;;;;;;;;;;;;4997558;28;19922;-85
2024/03/29 02:28:47;;;;;;;;;;;;;;;;;;4990259;28;19928;-84
2024/03/29 02:31:14;;;;;;;;;;;;;;;;;;4997968;28;20294;-84
2024/03/29 02:33:41;;;;;;;;;;;;;;;;;;4996866;28;20439;-84
2024/03/29 02:36:08;;;;;;;;;;;;;;;;;;4990512;28;19921;-84
2024/03/29 02:38:35;;;;;;;;;;;;;;;;;;4996191;28;19930;-85
2024/03/29 02:41:01;;;;;;;;;;;;;;;;;;4997759;28;20428;-84
2024/03/29 02:43:28;;;;;;;;;;;;;;;;;;4997056;28;19922;-83
2024/03/29 02:45:55;;;;;;;;;;;;;;;;;;4996800;28;19921;-84
2024/03/29 02:48:22;;;;;;;;;;;;;;;;;;4997307;28;19925;-83
2024/03/29 02:50:48;;;;;;;;;;;;;;;;;;4991976;28;19928;-84
2024/03/29 02:53:15;;;;;;;;;;;;;;;;;;4997204;28;19918;-85
2024/03/29 02:55:41;;;;;;;;;;;;;;;;;;4997515;28;19932;-82
2024/03/29 02:58:08;;;;;;;;;;;;;;;;;;4996576;28;20016;-84
2024/03/29 03:00:34;;;;;;;;;;;;;;;;;;4996876;28;20016;-83
2024/03/29 03:03:01;;;;;;;;;;;;;;;;;;4997052;28;19968;-85
2024/03/29 03:05:27;;;;;;;;;;;;;;;;;;4997880;28;20395;-84
2024/03/29 03:10:59;;;;;;;;;;;;;;;;;;4997257;28;20213;-85
2024/03/29 03:13:26;;;;;;;;;;;;;;;;;;4998056;28;19976;-85
2024/03/29 03:15:53;;;;;;;;;;;;;;;;;;4998202;28;19921;-85
2024/03/29 03:18:19;;;;;;;;;;;;;;;;;;4997155;28;19944;-84
2024/03/29 03:20:45;;;;;;;;;;;;;;;;;;4998073;28;19922;-85
2024/03/29 03:23:12;;;;;;;;;;;;;;;;;;4997352;28;19968;-86
2024/03/29 03:25:38;;;;;;;;;;;;;;;;;;4990137;28;20398;-85
2024/03/29 03:28:05;;;;;;;;;;;;;;;;;;4997666;28;20032;-84
2024/03/29 03:30:32;;;;;;;;;;;;;;;;;;4997158;28;19932;-85
2024/03/29 03:32:58;;;;;;;;;;;;;;;;;;4997817;28;19922;-86
2024/03/29 03:35:25;;;;;;;;;;;;;;;;;;4997528;28;19968;-84
2024/03/29 03:37:51;;;;;;;;;;;;;;;;;;4997308;28;19932;-85
2024/03/29 03:40:18;;;;;;;;;;;;;;;;;;4993201;28;19972;-84
2024/03/29 03:42:44;;;;;;;;;;;;;;;;;;4997454;28;19947;-84
2024/03/29 03:45:11;;;;;;;;;;;;;;;;;;4997525;28;19917;-85
2024/03/29 03:47:37;;;;;;;;;;;;;;;;;;4997000;28;20404;-82
2024/03/29 03:50:04;;;;;;;;;;;;;;;;;;4997291;28;20020;-84
2024/03/29 03:52:30;;;;;;;;;;;;;;;;;;4997330;28;19925;-85
2024/03/29 03:54:57;;;;;;;;;;;;;;;;;;4998356;28;19918;-83
2024/03/29 03:57:23;;;;;;;;;;;;;;;;;;4996093;28;19928;-85
2024/03/29 03:59:50;;;;;;;;;;;;;;;;;;5000445;28;20374;-85
2024/03/29 04:02:16;;;;;;;;;;;;;;;;;;5000163;28;19943;-86
2024/03/29 04:04:43;;;;;;;;;;;;;;;;;;4999376;28;19957;-86
2024/03/29 04:07:09;;;;;;;;;;;;;;;;;;5000467;28;20384;-86
2024/03/29 04:09:36;;;;;;;;;;;;;;;;;;5000142;28;19972;-86
2024/03/29 04:12:02;;;;;;;;;;;;;;;;;;4999335;28;19929;-85
2024/03/29 04:14:32;;;;;;;;;;;;;;;;;;4997906;28;19918;-85
2024/03/29 04:16:58;;;;;;;;;;;;;;;;;;4997561;28;19989;-85
2024/03/29 04:19:25;;;;;;;;;;;;;;;;;;4998533;28;19964;-85
2024/03/29 04:21:51;;;;;;;;;;;;;;;;;;4999789;28;19932;-86
2024/03/29 04:24:18;;;;;;;;;;;;;;;;;;4999527;28;19984;-85
2024/03/29 04:26:44;;;;;;;;;;;;;;;;;;4991312;28;19994;-84
2024/03/29 04:29:11;;;;;;;;;;;;;;;;;;4999365;28;19964;-85
2024/03/29 04:31:37;;;;;;;;;;;;;;;;;;4999338;28;20025;-86
2024/03/29 04:34:04;;;;;;;;;;;;;;;;;;5000305;28;19976;-86
2024/03/29 04:36:30;;;;;;;;;;;;;;;;;;4996655;28;19928;-85
2024/03/29 04:38:57;;;;;;;;;;;;;;;;;;4995688;28;20004;-83
2024/03/29 04:41:24;;;;;;;;;;;;;;;;;;4995359;28;19921;-85
2024/03/29 04:43:51;;;;;;;;;;;;;;;;;;4995775;28;19922;-84
2024/03/29 04:46:18;;;;;;;;;;;;;;;;;;4993648;28;20371;-85
2024/03/29 04:48:45;;;;;;;;;;;;;;;;;;4995775;28;19921;-84
2024/03/29 04:51:12;;;;;;;;;;;;;;;;;;4995712;28;20322;-85
2024/03/29 04:53:39;;;;;;;;;;;;;;;;;;4995675;28;19929;-84
2024/03/29 04:56:06;;;;;;;;;;;;;;;;;;4995434;28;19926;-85
2024/03/29 04:58:33;;;;;;;;;;;;;;;;;;4995278;28;19943;-83
2024/03/29 05:01:00;;;;;;;;;;;;;;;;;;4995691;28;19921;-85
2024/03/29 05:03:27;;;;;;;;;;;;;;;;;;4995372;28;20005;-84
2024/03/29 05:05:54;;;;;;;;;;;;;;;;;;4996469;28;20005;-85
2024/03/29 05:08:22;;;;;;;;;;;;;;;;;;4996675;28;20012;-84
2024/03/29 05:10:49;;;;;;;;;;;;;;;;;;4996249;28;19922;-84
2024/03/29 05:13:16;;;;;;;;;;;;;;;;;;4996142;28;19929;-84
2024/03/29 05:15:43;;;;;;;;;;;;;;;;;;4996638;28;19921;-84
2024/03/29 05:18:10;;;;;;;;;;;;;;;;;;4996627;28;19922;-84
2024/03/29 05:20:39;;;;;;;;;;;;;;;;;;4997333;28;19922;-86
2024/03/29 05:23:06;;;;;;;;;;;;;;;;;;4998168;28;20033;-85
2024/03/29 05:25:33;;;;;;;;;;;;;;;;;;4996764;28;19928;-85
2024/03/29 05:28:00;;;;;;;;;;;;;;;;;;4997144;28;19928;-85
2024/03/29 05:30:28;;;;;;;;;;;;;;;;;;4996964;28;20481;-83
2024/03/29 05:32:55;;;;;;;;;;;;;;;;;;4997034;28;19921;-86
2024/03/29 05:35:22;;;;;;;;;;;;;;;;;;4995992;28;19925;-85
2024/03/29 05:37:52;;;;;;;;;;;;;;;;;;4998868;28;19928;-84
2024/03/29 05:40:19;;;;;;;;;;;;;;;;;;4995905;28;19928;-83
2024/03/29 05:42:46;;;;;;;;;;;;;;;;;;4998572;28;19922;-82
2024/03/29 05:45:12;;;;;;;;;;;;;;;;;;4999317;28;19929;-84
2024/03/29 05:47:39;;;;;;;;;;;;;;;;;;4998769;28;19926;-83
2024/03/29 05:50:06;;;;;;;;;;;;;;;;;;4998834;28;19933;-83
2024/03/29 05:52:33;;;;;;;;;;;;;;;;;;4998694;28;19921;-81
2024/03/29 05:55:06;;;;;;;;;;;;;;;;;;4999446;28;20378;-82
2024/03/29 05:57:34;;;;;;;;;;;;;;;;;;4996984;28;20018;-81
2024/03/29 06:00:01;;;;;;;;;;;;;;;;;;4999519;28;19926;-82
2024/03/29 06:02:28;;;;;;;;;;;;;;;;;;4999434;28;20309;-82
2024/03/29 06:04:55;;;;;;;;;;;;;;;;;;5002411;28;19921;-82
2024/03/29 06:07:22;;;;;;;;;;;;;;;;;;4999661;28;20040;-86
2024/03/29 06:09:49;;;;;;;;;;;;;;;;;;5000417;28;19944;-83
2024/03/29 06:12:16;;;;;;;;;;;;;;;;;;4999551;28;20455;-82
2024/03/29 06:17:27;;;;;;;;;;;;;;;;;;4996349;28;19925;-82
2024/03/29 06:19:56;;;;;;;;;;;;;;;;;;4997832;28;20359;-85
2024/03/29 06:22:23;;;;;;;;;;;;;;;;;;4996952;28;19944;-83
2024/03/29 06:24:51;;;;;;;;;;;;;;;;;;4998055;28;19948;-84
2024/03/29 06:27:20;;;;;;;;;;;;;;;;;;4998362;28;19928;-85
2024/03/29 06:29:47;;;;;;;;;;;;;;;;;;4994865;28;20357;-85
2024/03/29 06:32:14;;;;;;;;;;;;;;;;;;4997433;28;19921;-84
2024/03/29 06:34:41;;;;;;;;;;;;;;;;;;4995301;28;20271;-84
2024/03/29 06:37:08;;;;;;;;;;;;;;;;;;4994157;28;19921;-84
2024/03/29 06:39:36;;;;;;;;;;;;;;;;;;4994648;28;19928;-84
2024/03/29 06:42:03;;;;;;;;;;;;;;;;;;4997723;28;19961;-84
2024/03/29 06:44:30;;;;;;;;;;;;;;;;;;4998001;28;20017;-84
2024/03/29 06:46:57;;;;;;;;;;;;;;;;;;4995047;28;20572;-83
2024/03/29 06:49:24;;;;;;;;;;;;;;;;;;4996134;28;19933;-84
2024/03/29 06:51:51;;;;;;;;;;;;;;;;;;4997871;28;19928;-85
2024/03/29 06:54:22;;;;;;;;;;;;;;;;;;5007023;28;20004;-83
2024/03/29 06:56:49;;;;;;;;;;;;;;;;;;5008333;28;19922;-84
2024/03/29 06:59:16;;;;;;;;;;;;;;;;;;5005107;28;19928;-85
2024/03/29 07:01:43;;;;;;;;;;;;;;;;;;5009638;28;20016;-84
2024/03/29 07:04:10;;;;;;;;;;;;;;;;;;5007129;28;20008;-84
2024/03/29 07:06:38;;;;;;;;;;;;;;;;;;5007470;28;19928;-84
2024/03/29 07:09:06;;;;;;;;;;;;;;;;;;5007786;28;19936;-84
2024/03/29 07:11:33;;;;;;;;;;;;;;;;;;5007833;28;19925;-84
2024/03/29 07:13:59;;;;;;;;;;;;;;;;;;5007347;28;19921;-85
2024/03/29 07:16:26;;;;;;;;;;;;;;;;;;4998806;28;19940;-82
2024/03/29 07:18:53;;;;;;;;;;;;;;;;;;5002337;28;20380;-85
2024/03/29 07:21:20;;;;;;;;;;;;;;;;;;4999530;28;20463;-85
2024/03/29 07:23:47;;;;;;;;;;;;;;;;;;5003147;28;19958;-85
2024/03/29 07:26:14;;;;;;;;;;;;;;;;;;5007934;28;19939;-85
2024/03/29 07:28:41;;;;;;;;;;;;;;;;;;5008863;28;20042;-85
2024/03/29 07:31:08;;;;;;;;;;;;;;;;;;5007770;28;20452;-84
2024/03/29 07:33:35;;;;;;;;;;;;;;;;;;5007989;28;20371;-84
2024/03/29 07:36:02;;;;;;;;;;;;;;;;;;5004374;28;19940;-85
2024/03/29 07:38:29;;;;;;;;;;;;;;;;;;4998913;28;19948;-85
2024/03/29 07:40:56;;;;;;;;;;;;;;;;;;4997177;28;19968;-84
2024/03/29 07:43:23;;;;;;;;;;;;;;;;;;4997914;28;20015;-85
2024/03/29 07:45:50;;;;;;;;;;;;;;;;;;4998733;28;19947;-83
2024/03/29 07:48:17;;;;;;;;;;;;;;;;;;4999012;28;20468;-84
2024/03/29 07:50:44;;;;;;;;;;;;;;;;;;5000339;28;19948;-85
2024/03/29 07:53:11;;;;;;;;;;;;;;;;;;4999644;28;19943;-85
2024/03/29 07:55:38;;;;;;;;;;;;;;;;;;4997757;28;20023;-85
2024/03/29 07:58:05;;;;;;;;;;;;;;;;;;4999642;28;20386;-85
2024/03/29 08:00:32;;;;;;;;;;;;;;;;;;4999121;28;19922;-84
2024/03/29 08:02:58;;;;;;;;;;;;;;;;;;4998342;28;20017;-83
2024/03/29 08:05:25;;;;;;;;;;;;;;;;;;4996154;28;19960;-84
2024/03/29 08:07:52;;;;;;;;;;;;;;;;;;4994642;28;19921;-85
2024/03/29 08:10:19;;;;;;;;;;;;;;;;;;4997339;28;19957;-82
2024/03/29 08:12:46;;;;;;;;;;;;;;;;;;4995400;28;19977;-84
2024/03/29 08:15:13;;;;;;;;;;;;;;;;;;4995557;28;19944;-84
2024/03/29 08:17:40;;;;;;;;;;;;;;;;;;4995223;28;19996;-84
2024/03/29 08:20:07;;;;;;;;;;;;;;;;;;4996153;28;20433;-84
2024/03/29 08:22:34;;;;;;;;;;;;;;;;;;4995794;28;19977;-83
2024/03/29 08:25:01;;;;;;;;;;;;;;;;;;4996830;28;19968;-85
2024/03/29 08:27:28;;;;;;;;;;;;;;;;;;4996012;28;19973;-84
2024/03/29 08:29:55;;;;;;;;;;;;;;;;;;4996291;28;20449;-84
2024/03/29 08:32:22;;;;;;;;;;;;;;;;;;4997132;28;19983;-83
2024/03/29 08:34:49;;;;;;;;;;;;;;;;;;4997435;28;20067;-84
2024/03/29 08:37:17;;;;;;;;;;;;;;;;;;4996337;28;19980;-84
2024/03/29 08:39:44;;;;;;;;;;;;;;;;;;4997127;28;19981;-84
2024/03/29 08:42:11;;;;;;;;;;;;;;;;;;4996380;28;19983;-84
2024/03/29 08:44:39;;;;;;;;;;;;;;;;;;4997022;28;19981;-84
2024/03/29 08:47:05;;;;;;;;;;;;;;;;;;4995101;28;20327;-84
2024/03/29 08:49:32;;;;;;;;;;;;;;;;;;4996341;28;20501;-83
2024/03/29 08:52:01;;;;;;;;;;;;;;;;;;4996588;28;19952;-83
2024/03/29 08:54:28;;;;;;;;;;;;;;;;;;4998509;28;20009;-84
2024/03/29 08:56:55;;;;;;;;;;;;;;;;;;4995290;28;19980;-84
2024/03/29 08:59:22;;;;;;;;;;;;;;;;;;4995992;28;19963;-84
2024/03/29 09:01:49;;;;;;;;;;;;;;;;;;4995974;28;20276;-84
2024/03/29 09:04:16;;;;;;;;;;;;;;;;;;4996799;28;19922;-84
2024/03/29 09:06:43;;;;;;;;;;;;;;;;;;4994674;28;20051;-85
2024/03/29 09:09:10;;;;;;;;;;;;;;;;;;4995439;28;19995;-85
2024/03/29 09:11:37;;;;;;;;;;;;;;;;;;4999315;28;19937;-84
2024/03/29 09:14:06;;;;;;;;;;;;;;;;;;4999722;28;19926;-84
2024/03/29 09:16:33;;;;;;;;;;;;;;;;;;4999101;28;20631;-84
2024/03/29 09:19:00;;;;;;;;;;;;;;;;;;4996310;28;19922;-85
2024/03/29 09:21:27;;;;;;;;;;;;;;;;;;4996455;28;19921;-84
2024/03/29 09:23:54;;;;;;;;;;;;;;;;;;4992272;28;20365;-84
2024/03/29 09:26:21;;;;;;;;;;;;;;;;;;4994299;28;19973;-83
2024/03/29 09:28:48;;;;;;;;;;;;;;;;;;4995278;28;20076;-85
2024/03/29 09:31:15;;;;;;;;;;;;;;;;;;4996284;28;19986;-84
2024/03/29 09:33:42;;;;;;;;;;;;;;;;;;4999299;28;19970;-85
2024/03/29 09:36:10;;;;;;;;;;;;;;;;;;4997651;28;20341;-85
2024/03/29 09:38:37;;;;;;;;;;;;;;;;;;5006426;28;19993;-85
2024/03/29 09:41:05;;;;;;;;;;;;;;;;;;5004946;28;19984;-85
2024/03/29 09:43:32;;;;;;;;;;;;;;;;;;5002309;28;19977;-85
2024/03/29 09:45:59;;;;;;;;;;;;;;;;;;5002864;28;19921;-85
2024/03/29 09:48:26;;;;;;;;;;;;;;;;;;5001009;28;19955;-85
2024/03/29 09:50:53;;;;;;;;;;;;;;;;;;4995630;28;19960;-85
2024/03/29 09:53:20;;;;;;;;;;;;;;;;;;4997905;28;19921;-85
2024/03/29 09:55:47;;;;;;;;;;;;;;;;;;4997853;28;19921;-85
2024/03/29 09:58:14;;;;;;;;;;;;;;;;;;5000099;28;19966;-85
2024/03/29 10:00:41;;;;;;;;;;;;;;;;;;4999185;28;20016;-86
2024/03/29 10:03:08;;;;;;;;;;;;;;;;;;5001315;28;20012;-86
2024/03/29 10:05:35;;;;;;;;;;;;;;;;;;5001328;28;19994;-85
2024/03/29 10:08:06;;;;;;;;;;;;;;;;;;5001848;28;20020;-86
2024/03/29 10:10:33;;;;;;;;;;;;;;;;;;4999652;28;19930;-85
2024/03/29 10:13:00;;;;;;;;;;;;;;;;;;4998670;28;20007;-85
2024/03/29 10:15:28;;;;;;;;;;;;;;;;;;5004758;28;19977;-85
2024/03/29 10:17:55;;;;;;;;;;;;;;;;;;5008008;28;19952;-86
2024/03/29 10:20:23;;;;;;;;;;;;;;;;;;5000370;28;19925;-84
2024/03/29 10:22:50;;;;;;;;;;;;;;;;;;4999573;28;20012;-86
2024/03/29 10:25:17;;;;;;;;;;;;;;;;;;4999266;28;19922;-86
2024/03/29 10:27:44;;;;;;;;;;;;;;;;;;4997274;28;19953;-86
2024/03/29 10:30:11;;;;;;;;;;;;;;;;;;5000867;28;19922;-86
2024/03/29 10:32:39;;;;;;;;;;;;;;;;;;5000120;28;19972;-86
2024/03/29 10:35:07;;;;;;;;;;;;;;;;;;4999792;28;20382;-85
2024/03/29 10:37:38;;;;;;;;;;;;;;;;;;4999722;28;19933;-86
2024/03/29 10:40:05;;;;;;;;;;;;;;;;;;5004016;28;19997;-85
2024/03/29 10:42:32;;;;;;;;;;;;;;;;;;5000504;28;19993;-85
2024/03/29 10:44:59;;;;;;;;;;;;;;;;;;5001092;28;19921;-85
2024/03/29 10:47:26;;;;;;;;;;;;;;;;;;4999239;28;19930;-86
2024/03/29 10:49:53;;;;;;;;;;;;;;;;;;5000846;28;19944;-86
2024/03/29 10:52:20;;;;;;;;;;;;;;;;;;5000747;28;20379;-84
2024/03/29 10:54:47;;;;;;;;;;;;;;;;;;4997815;28;19922;-85
2024/03/29 10:57:14;;;;;;;;;;;;;;;;;;4999632;28;19925;-86
2024/03/29 10:59:41;;;;;;;;;;;;;;;;;;5000762;28;20009;-86
2024/03/29 11:02:08;;;;;;;;;;;;;;;;;;5000709;28;20275;-85
2024/03/29 11:04:35;;;;;;;;;;;;;;;;;;5000481;28;20306;-85
2024/03/29 11:07:02;;;;;;;;;;;;;;;;;;4998824;28;20016;-86
2024/03/29 11:09:30;;;;;;;;;;;;;;;;;;4998711;28;19921;-86
2024/03/29 11:11:57;;;;;;;;;;;;;;;;;;4999522;28;19921;-85
2024/03/29 11:14:24;;;;;;;;;;;;;;;;;;4997988;28;19969;-85
2024/03/29 11:16:54;;;;;;;;;;;;;;;;;;4996366;28;19922;-85
2024/03/29 11:19:21;;;;;;;;;;;;;;;;;;4998034;28;19928;-83
2024/03/29 11:21:49;;;;;;;;;;;;;;;;;;5005671;28;20004;-83
2024/03/29 11:24:16;;;;;;;;;;;;;;;;;;5000989;28;20501;-82
2024/03/29 11:26:43;;;;;;;;;;;;;;;;;;4994792;28;19949;-83
2024/03/29 11:29:10;;;;;;;;;;;;;;;;;;5002037;28;19921;-83
2024/03/29 11:31:37;;;;;;;;;;;;;;;;;;5001773;28;19922;-85
2024/03/29 11:34:04;;;;;;;;;;;;;;;;;;4999373;28;19933;-83
2024/03/29 11:36:31;;;;;;;;;;;;;;;;;;4997995;28;19973;-84
2024/03/29 11:38:58;;;;;;;;;;;;;;;;;;5000740;28;20054;-83
2024/03/29 11:41:26;;;;;;;;;;;;;;;;;;4999980;28;19922;-83
2024/03/29 11:43:53;;;;;;;;;;;;;;;;;;5000073;28;19984;-83
2024/03/29 11:46:20;;;;;;;;;;;;;;;;;;4998348;28;19922;-84
2024/03/29 11:48:49;;;;;;;;;;;;;;;;;;5000732;28;19928;-84
2024/03/29 11:51:16;;;;;;;;;;;;;;;;;;5000912;28;19921;-84
2024/03/29 11:53:43;;;;;;;;;;;;;;;;;;5000526;28;19925;-83
2024/03/29 11:56:11;;;;;;;;;;;;;;;;;;4999980;28;19980;-84
2024/03/29 11:58:40;;;;;;;;;;;;;;;;;;4999919;28;19968;-84
2024/03/29 12:01:09;;;;;;;;;;;;;;;;;;5000567;28;19992;-84
2024/03/29 12:03:36;;;;;;;;;;;;;;;;;;5000086;28;19922;-84
2024/03/29 12:06:03;;;;;;;;;;;;;;;;;;4996484;28;20008;-84
2024/03/29 12:08:30;;;;;;;;;;;;;;;;;;4998120;28;20020;-84
2024/03/29 12:10:57;;;;;;;;;;;;;;;;;;5000515;28;19922;-84
2024/03/29 12:13:24;;;;;;;;;;;;;;;;;;5000295;28;19932;-83
2024/03/29 12:15:51;;;;;;;;;;;;;;;;;;5001698;28;20004;-83
2024/03/29 12:18:18;;;;;;;;;;;;;;;;;;4998697;28;19922;-82
2024/03/29 12:20:46;;;;;;;;;;;;;;;;;;4992268;28;20012;-83
2024/03/29 12:23:13;;;;;;;;;;;;;;;;;;4998967;28;20310;-83
2024/03/29 12:25:40;;;;;;;;;;;;;;;;;;4999611;28;20438;-84
2024/03/29 12:28:07;;;;;;;;;;;;;;;;;;4998769;28;19921;-83
2024/03/29 12:30:34;;;;;;;;;;;;;;;;;;5000054;28;20000;-84
2024/03/29 12:33:01;;;;;;;;;;;;;;;;;;5000614;28;20004;-84
2024/03/29 12:35:28;;;;;;;;;;;;;;;;;;5000022;28;20059;-83
2024/03/29 12:37:56;;;;;;;;;;;;;;;;;;4999497;28;20042;-84
2024/03/29 12:40:24;;;;;;;;;;;;;;;;;;5000807;28;20358;-84
2024/03/29 12:42:51;;;;;;;;;;;;;;;;;;5000398;28;19977;-85
2024/03/29 12:45:18;;;;;;;;;;;;;;;;;;5000162;28;20442;-83
2024/03/29 12:47:45;;;;;;;;;;;;;;;;;;4998743;28;20339;-84
2024/03/29 12:50:12;;;;;;;;;;;;;;;;;;5003114;28;19980;-84
2024/03/29 12:52:39;;;;;;;;;;;;;;;;;;5003781;28;20076;-84
2024/03/29 12:55:07;;;;;;;;;;;;;;;;;;5003760;28;19984;-85
2024/03/29 12:57:34;;;;;;;;;;;;;;;;;;5003205;28;19977;-83
2024/03/29 13:00:02;;;;;;;;;;;;;;;;;;5004375;28;19985;-84
2024/03/29 13:02:29;;;;;;;;;;;;;;;;;;5004078;28;20589;-85
2024/03/29 13:04:56;;;;;;;;;;;;;;;;;;5003455;28;20133;-84
2024/03/29 13:07:23;;;;;;;;;;;;;;;;;;5003422;28;19922;-83
2024/03/29 13:09:50;;;;;;;;;;;;;;;;;;5004385;28;20394;-85
2024/03/29 13:12:17;;;;;;;;;;;;;;;;;;5003802;28;20079;-84
2024/03/29 13:14:44;;;;;;;;;;;;;;;;;;5003694;28;20065;-84
2024/03/29 13:17:11;;;;;;;;;;;;;;;;;;5003620;28;20056;-84
2024/03/29 13:19:37;;;;;;;;;;;;;;;;;;5002290;28;20394;-86
2024/03/29 13:22:06;;;;;;;;;;;;;;;;;;5003663;28;20454;-85
2024/03/29 13:24:33;;;;;;;;;;;;;;;;;;5006346;28;20002;-85
2024/03/29 13:27:00;;;;;;;;;;;;;;;;;;5001737;28;19977;-86
2024/03/29 13:29:27;;;;;;;;;;;;;;;;;;5002797;28;20120;-85
2024/03/29 13:31:54;;;;;;;;;;;;;;;;;;5002994;28;20000;-85
2024/03/29 13:34:20;;;;;;;;;;;;;;;;;;5003084;28;20068;-82
2024/03/29 13:36:48;;;;;;;;;;;;;;;;;;5002950;28;20064;-84
2024/03/29 13:39:15;;;;;;;;;;;;;;;;;;4998259;28;20529;-84
2024/03/29 13:41:42;;;;;;;;;;;;;;;;;;5004799;28;20005;-84
2024/03/29 13:44:09;;;;;;;;;;;;;;;;;;5008172;28;19980;-85
2024/03/29 13:46:36;;;;;;;;;;;;;;;;;;5002663;28;19970;-83
2024/03/29 13:49:03;;;;;;;;;;;;;;;;;;5003987;28;20060;-84
2024/03/29 13:51:30;;;;;;;;;;;;;;;;;;5007416;28;20092;-84
2024/03/29 13:53:58;;;;;;;;;;;;;;;;;;5008990;28;19973;-85
2024/03/29 13:56:25;;;;;;;;;;;;;;;;;;5007089;28;20458;-85
2024/03/29 13:58:52;;;;;;;;;;;;;;;;;;4999159;28;19985;-84
2024/03/29 14:01:19;;;;;;;;;;;;;;;;;;5003278;28;19976;-85
2024/03/29 14:03:46;;;;;;;;;;;;;;;;;;5001985;28;20057;-84
2024/03/29 14:06:13;;;;;;;;;;;;;;;;;;5000264;28;19977;-85
2024/03/29 14:08:40;;;;;;;;;;;;;;;;;;4999742;28;19989;-82
2024/03/29 14:11:07;;;;;;;;;;;;;;;;;;5002953;28;20524;-84
2024/03/29 14:13:34;;;;;;;;;;;;;;;;;;5003071;28;19980;-84
2024/03/29 14:16:03;;;;;;;;;;;;;;;;;;5004578;28;20052;-84
2024/03/29 14:18:31;;;;;;;;;;;;;;;;;;5002543;28;19990;-84
2024/03/29 14:20:58;;;;;;;;;;;;;;;;;;5005058;28;19976;-84
2024/03/29 14:23:25;;;;;;;;;;;;;;;;;;5005739;28;20024;-84
2024/03/29 14:25:52;;;;;;;;;;;;;;;;;;5004132;28;19973;-84
2024/03/29 14:28:19;;;;;;;;;;;;;;;;;;5000016;28;20029;-82
2024/03/29 14:30:46;;;;;;;;;;;;;;;;;;5003479;28;20017;-84
2024/03/29 14:33:13;;;;;;;;;;;;;;;;;;5003728;28;20068;-84
2024/03/29 14:35:40;;;;;;;;;;;;;;;;;;5003028;28;20126;-83
2024/03/29 14:38:06;;;;;;;;;;;;;;;;;;5001746;28;20069;-84
2024/03/29 14:40:34;;;;;;;;;;;;;;;;;;5003206;28;20484;-84
2024/03/29 14:43:01;;;;;;;;;;;;;;;;;;4997441;28;19973;-84
2024/03/29 14:45:28;;;;;;;;;;;;;;;;;;4996689;28;20143;-84
2024/03/29 14:47:55;;;;;;;;;;;;;;;;;;5001819;28;19999;-85
2024/03/29 14:50:22;;;;;;;;;;;;;;;;;;5003372;28;20036;-83
2024/03/29 14:52:49;;;;;;;;;;;;;;;;;;5004615;28;20088;-85
2024/03/29 14:55:16;;;;;;;;;;;;;;;;;;5003605;28;20035;-83
2024/03/29 14:57:43;;;;;;;;;;;;;;;;;;5000580;28;20025;-83
2024/03/29 15:00:10;;;;;;;;;;;;;;;;;;5001751;28;20394;-84
2024/03/29 15:02:37;;;;;;;;;;;;;;;;;;4999641;28;20016;-83
2024/03/29 15:05:05;;;;;;;;;;;;;;;;;;5003745;28;19984;-85
2024/03/29 15:07:33;;;;;;;;;;;;;;;;;;5004256;28;19969;-83
2024/03/29 15:10:03;;;;;;;;;;;;;;;;;;5007294;28;19976;-83
2024/03/29 15:12:30;;;;;;;;;;;;;;;;;;5009921;28;19985;-84
2024/03/29 15:14:57;;;;;;;;;;;;;;;;;;5006257;28;20001;-85
2024/03/29 15:17:24;;;;;;;;;;;;;;;;;;5007781;28;20056;-83
2024/03/29 15:19:52;;;;;;;;;;;;;;;;;;5003598;28;19977;-85
2024/03/29 15:22:19;;;;;;;;;;;;;;;;;;5004095;28;20370;-83
2024/03/29 15:24:46;;;;;;;;;;;;;;;;;;5002222;28;19975;-83
2024/03/29 15:27:26;;;;;;;;;;;;;;;;;;5000250;28;20429;-83
2024/03/29 15:29:52;;;;;;;;;;;;;;;;;;5001230;28;19976;-84
2024/03/29 15:32:20;;;;;;;;;;;;;;;;;;5000303;28;20135;-83
2024/03/29 15:34:47;;;;;;;;;;;;;;;;;;4992295;28;19922;-84
2024/03/29 15:37:14;;;;;;;;;;;;;;;;;;5001031;28;19966;-83
2024/03/29 15:39:41;;;;;;;;;;;;;;;;;;5003275;28;19971;-84
2024/03/29 15:42:09;;;;;;;;;;;;;;;;;;5010883;28;19921;-84
2024/03/29 15:44:36;;;;;;;;;;;;;;;;;;5004798;28;20008;-82
2024/03/29 15:47:03;;;;;;;;;;;;;;;;;;5008209;28;19921;-83
2024/03/29 15:49:30;;;;;;;;;;;;;;;;;;5015020;28;19976;-83
2024/03/29 15:51:57;;;;;;;;;;;;;;;;;;5003942;28;19953;-84
2024/03/29 15:54:26;;;;;;;;;;;;;;;;;;5005377;28;19921;-84
2024/03/29 15:56:52;;;;;;;;;;;;;;;;;;5006230;28;19921;-86
2024/03/29 15:59:22;;;;;;;;;;;;;;;;;;5012048;28;19990;-86
2024/03/29 16:01:49;;;;;;;;;;;;;;;;;;5010674;28;19989;-86
2024/03/29 16:04:16;;;;;;;;;;;;;;;;;;4988298;28;19922;-86
2024/03/29 16:06:44;;;;;;;;;;;;;;;;;;4996651;28;19951;-85
2024/03/29 16:09:11;;;;;;;;;;;;;;;;;;4995854;28;20599;-86
2024/03/29 16:11:38;;;;;;;;;;;;;;;;;;5004700;28;19928;-86
2024/03/29 16:14:05;;;;;;;;;;;;;;;;;;5000091;28;19980;-85
2024/03/29 16:16:32;;;;;;;;;;;;;;;;;;4988309;28;20335;-84
2024/03/29 16:18:58;;;;;;;;;;;;;;;;;;4997613;28;19928;-85
2024/03/29 16:21:25;;;;;;;;;;;;;;;;;;5000736;28;19964;-85
2024/03/29 16:23:51;;;;;;;;;;;;;;;;;;5003040;28;20379;-86
2024/03/29 16:26:18;;;;;;;;;;;;;;;;;;4990945;28;19917;-85
2024/03/29 16:28:44;;;;;;;;;;;;;;;;;;4995779;28;19929;-85
2024/03/29 16:31:12;;;;;;;;;;;;;;;;;;4996826;28;19933;-85
2024/03/29 16:33:38;;;;;;;;;;;;;;;;;;4995650;28;20286;-86
2024/03/29 16:36:21;;;;;;;;;;;;;;;;;;4992646;28;20306;-86
2024/03/29 16:38:54;;;;;;;;;;;;;;;;;;4994937;28;19941;-85
2024/03/29 16:41:27;;;;;;;;;;;;;;;;;;5003336;28;19917;-86
2024/03/29 16:43:55;;;;;;;;;;;;;;;;;;5005672;28;19986;-87
2024/03/29 16:46:30;;;;;;;;;;;;;;;;;;5004555;28;19917;-85
2024/03/29 16:54:11;;;;;;;;;;;;;;;;;;5014522;28;19968;-85
2024/03/29 16:56:43;;;;;;;;;;;;;;;;;;5018420;28;19921;-86
2024/03/29 16:59:10;;;;;;;;;;;;;;;;;;5033344;28;19923;-86
2024/03/29 17:01:36;;;;;;;;;;;;;;;;;;5040923;28;19921;-87
2024/03/29 17:04:12;;;;;;;;;;;;;;;;;;5027064;28;19925;-88
2024/03/29 17:06:38;;;;;;;;;;;;;;;;;;5016736;28;20416;-86
2024/03/29 17:14:30;;;;;;;;;;;;;;;;;;4990245;28;20603;-85
2024/03/29 17:17:03;;;;;;;;;;;;;;;;;;5036976;28;19921;-84
2024/03/29 17:19:30;;;;;;;;;;;;;;;;;;5097826;22;19952;-86
2024/03/29 17:21:58;;;;;;;;;;;;;;;;;;5038398;28;19996;-82
2024/03/29 17:24:29;;;;;;;;;;;;;;;;;;5033506;28;20001;-86
2024/03/29 17:26:55;;;;;;;;;;;;;;;;;;5031269;28;20309;-82
2024/03/29 17:29:23;;;;;;;;;;;;;;;;;;5040322;28;19917;-85
2024/03/29 17:31:49;;;;;;;;;;;;;;;;;;5030925;28;19925;-84
2024/03/29 17:34:16;;;;;;;;;;;;;;;;;;5031156;28;19967;-83
2024/03/29 17:36:42;;;;;;;;;;;;;;;;;;5032837;28;19945;-84
2024/03/29 17:39:11;;;;;;;;;;;;;;;;;;5023040;28;19925;-85
2024/03/29 17:41:37;;;;;;;;;;;;;;;;;;5035633;28;19921;-86
2024/03/29 17:44:04;;;;;;;;;;;;;;;;;;5026895;28;19927;-84
2024/03/29 17:46:30;;;;;;;;;;;;;;;;;;5025677;28;20353;-83
2024/03/29 17:48:57;;;;;;;;;;;;;;;;;;5038650;28;19927;-82
2024/03/29 17:51:23;;;;;;;;;;;;;;;;;;5038344;28;20020;-84
2024/03/29 17:53:50;;;;;;;;;;;;;;;;;;5035986;28;19952;-84
2024/03/29 17:56:16;;;;;;;;;;;;;;;;;;5035153;28;19927;-86
2024/03/29 17:58:42;;;;;;;;;;;;;;;;;;5028587;28;19960;-86
2024/03/29 18:01:11;;;;;;;;;;;;;;;;;;5031945;28;19980;-85
2024/03/29 18:03:38;;;;;;;;;;;;;;;;;;5029230;28;19917;-86
2024/03/29 18:06:05;;;;;;;;;;;;;;;;;;5031717;28;20006;-84
2024/03/29 18:08:32;;;;;;;;;;;;;;;;;;5024463;28;19976;-85
2024/03/29 18:10:58;;;;;;;;;;;;;;;;;;5036921;28;19928;-85
2024/03/29 18:13:25;;;;;;;;;;;;;;;;;;5037090;28;19924;-86
2024/03/29 18:15:51;;;;;;;;;;;;;;;;;;5033291;28;20032;-86
2024/03/29 18:18:18;;;;;;;;;;;;;;;;;;5031318;28;19960;-84
2024/03/29 18:20:44;;;;;;;;;;;;;;;;;;5026319;28;19921;-85
2024/03/29 18:23:11;;;;;;;;;;;;;;;;;;5039890;28;19924;-84
2024/03/29 18:25:37;;;;;;;;;;;;;;;;;;5035713;28;20354;-85
2024/03/29 18:28:04;;;;;;;;;;;;;;;;;;5034281;28;20087;-85
2024/03/29 18:30:30;;;;;;;;;;;;;;;;;;5031974;28;19921;-85
2024/03/29 18:32:57;;;;;;;;;;;;;;;;;;5042063;28;20282;-84
2024/03/29 18:35:23;;;;;;;;;;;;;;;;;;5041437;28;19928;-87
2024/03/29 18:37:51;;;;;;;;;;;;;;;;;;5032379;28;20069;-86
2024/03/29 18:40:17;;;;;;;;;;;;;;;;;;5028602;28;19944;-86
2024/03/29 18:42:45;;;;;;;;;;;;;;;;;;5032596;28;19976;-86
2024/03/29 18:45:17;;;;;;;;;;;;;;;;;;5039531;28;19925;-84